createdAt,value
2019-02-16T15:42:14.645Z,1001.52
2019-02-16T15:43:29.023Z,1001.57
2019-02-16T15:44:29.225Z,1001.52
2019-02-16T15:45:29.413Z,1001.53
2019-02-16T15:46:29.611Z,1001.54
2019-02-16T15:47:29.837Z,1001.48
2019-02-16T15:48:31.692Z,1001.48
2019-02-16T15:49:31.398Z,1001.49
2019-02-16T15:50:31.870Z,1001.39
2019-02-16T15:51:31.862Z,1001.42
2019-02-16T15:52:32.062Z,1001.47
2019-02-16T15:53:32.313Z,1001.48
2019-02-16T15:54:32.577Z,1001.47
2019-02-16T15:55:32.697Z,1001.45
2019-02-16T15:56:32.867Z,1001.51
2019-02-16T15:57:33.053Z,1001.52
2019-02-16T15:58:33.211Z,1001.51
2019-02-16T15:59:35.200Z,1001.51
2019-02-16T16:00:34.540Z,1001.53
2019-02-16T16:01:33.674Z,1001.55
2019-02-16T16:02:33.806Z,1001.49
2019-02-16T16:03:34.589Z,1001.65
2019-02-16T16:04:34.236Z,1001.49
2019-02-16T16:05:34.410Z,1001.52
2019-02-16T16:06:34.531Z,1001.55
2019-02-16T16:07:34.636Z,1001.56
2019-02-16T16:08:34.926Z,1001.57
2019-02-16T16:09:35.058Z,1001.57
2019-02-16T16:10:35.209Z,1001.64
2019-02-16T16:11:35.357Z,1001.68
2019-02-16T16:12:35.506Z,1001.62
2019-02-16T16:13:35.654Z,1001.61
2019-02-16T16:14:35.810Z,1001.65
2019-02-16T16:15:41.699Z,1001.63
2019-02-16T16:16:38.103Z,1001.70
2019-02-16T16:17:36.357Z,1001.70
2019-02-16T16:18:36.506Z,1001.67
2019-02-16T16:19:36.718Z,1001.69
2019-02-16T16:20:36.833Z,1001.72
2019-02-16T16:21:38.023Z,1001.70
2019-02-16T16:22:37.128Z,1001.76
2019-02-16T16:23:37.271Z,1001.71
2019-02-16T16:24:37.551Z,1001.68
2019-02-16T16:25:38.270Z,1001.65
2019-02-16T16:26:38.748Z,1001.64
2019-02-16T16:27:38.736Z,1001.69
2019-02-16T16:28:38.353Z,1001.69
2019-02-16T16:29:38.463Z,1001.67
2019-02-16T16:30:38.725Z,1001.66
2019-02-16T16:31:38.862Z,1001.66
2019-02-16T16:32:39.019Z,1001.68
2019-02-16T16:33:39.149Z,1001.60
2019-02-16T16:34:39.278Z,1001.75
2019-02-16T16:35:40.274Z,1001.75
2019-02-16T16:36:39.786Z,1001.80
2019-02-16T16:37:39.957Z,1001.71
2019-02-16T16:38:40.159Z,1001.71
2019-02-16T16:39:40.347Z,1001.73
2019-02-16T16:40:41.307Z,1001.73
2019-02-16T16:41:40.684Z,1001.73
2019-02-16T16:42:40.870Z,1001.79
2019-02-16T16:43:41.032Z,1001.78
2019-02-16T16:44:41.199Z,1001.78
2019-02-16T16:45:41.355Z,1001.81
2019-02-16T16:46:41.514Z,1001.83
2019-02-16T16:47:41.689Z,1001.83
2019-02-16T16:48:41.830Z,1001.87
2019-02-16T16:49:41.982Z,1001.83
2019-02-16T16:50:42.085Z,1001.86
2019-02-16T16:51:42.238Z,1001.86
2019-02-16T16:52:42.380Z,1001.90
2019-02-16T16:53:42.502Z,1001.84
2019-02-16T16:54:42.761Z,1001.90
2019-02-16T16:55:42.881Z,1001.86
2019-02-16T16:56:43.039Z,1001.86
2019-02-16T16:57:43.234Z,1001.81
2019-02-16T16:58:43.388Z,1001.88
2019-02-16T16:59:43.511Z,1001.90
2019-02-16T17:00:43.640Z,1001.89
2019-02-16T17:01:43.760Z,1001.87
2019-02-16T17:02:44.052Z,1001.87
2019-02-16T17:17:01.466Z,1002.26
2019-02-16T17:18:03.929Z,1002.26
2019-02-16T17:19:02.459Z,1002.22
2019-02-16T17:20:02.999Z,1002.29
2019-02-16T17:21:04.087Z,1002.25
2019-02-16T17:22:02.890Z,1002.22
2019-02-16T17:23:03.001Z,1002.30
2019-02-16T17:24:03.285Z,1002.29
2019-02-16T17:25:04.722Z,1002.24
2019-02-16T17:26:03.610Z,1002.23
2019-02-16T17:27:03.771Z,1002.23
2019-02-16T17:28:03.872Z,1002.17
2019-02-16T17:29:03.962Z,1002.25
2019-02-16T17:30:04.280Z,1002.22
2019-02-16T17:31:04.402Z,1002.23
2019-02-16T17:32:04.606Z,1002.23
2019-02-16T17:33:04.859Z,1002.23
2019-02-16T17:34:04.969Z,1002.26
2019-02-16T17:35:05.065Z,1002.25
2019-02-16T17:36:05.259Z,1002.29
2019-02-16T17:37:05.450Z,1002.24
2019-02-16T17:38:05.610Z,1002.31
2019-02-16T17:39:05.770Z,1002.31
2019-02-16T17:40:05.968Z,1002.34
2019-02-16T17:41:06.261Z,1002.33
2019-02-16T17:42:06.406Z,1002.35
2019-02-16T17:43:06.526Z,1002.34
2019-02-16T17:44:06.715Z,1002.30
2019-02-16T17:45:06.942Z,1002.35
2019-02-16T17:46:07.121Z,1002.24
2019-02-16T17:47:07.279Z,1002.31
2019-02-16T17:48:07.420Z,1002.32
2019-02-16T17:49:07.594Z,1002.31
2019-02-16T17:50:07.700Z,1002.29
2019-02-16T17:51:07.800Z,1002.43
2019-02-16T17:52:08.063Z,1002.36
2019-02-16T17:53:08.236Z,1002.39
2019-02-16T17:54:08.917Z,1002.39
2019-02-16T17:55:09.737Z,1002.36
2019-02-16T17:56:08.922Z,1002.37
2019-02-16T17:57:09.153Z,1002.29
2019-02-16T17:58:11.148Z,1002.35
2019-02-16T17:59:09.297Z,1002.37
2019-02-16T18:30:32.017Z,1002.63
2019-02-16T18:31:33.139Z,1002.67
2019-02-16T18:32:33.350Z,1002.66
2019-02-16T18:33:33.751Z,1002.73
2019-02-16T18:34:33.742Z,1002.73
2019-02-16T18:35:34.078Z,1002.67
2019-02-16T18:36:34.595Z,1002.75
2019-02-16T18:37:36.198Z,1002.75
2019-02-16T18:38:35.562Z,1002.74
2019-02-16T18:39:34.892Z,1002.70
2019-02-16T18:40:35.078Z,1002.70
2019-02-16T18:41:35.354Z,1002.68
2019-02-16T18:42:35.391Z,1002.58
2019-02-16T18:43:35.600Z,1002.61
2019-02-16T18:44:35.764Z,1002.62
2019-02-16T18:45:35.916Z,1002.62
2019-02-16T18:46:36.101Z,1002.62
2019-02-16T18:47:36.255Z,1002.59
2019-02-16T18:48:36.370Z,1002.60
2019-02-16T18:49:36.630Z,1002.63
2019-02-16T18:50:36.984Z,1002.57
2019-02-16T18:51:37.616Z,1002.55
2019-02-16T18:52:37.273Z,1002.60
2019-02-16T18:53:37.747Z,1002.57
2019-02-16T18:54:37.628Z,1002.53
2019-02-16T18:55:37.716Z,1002.52
2019-02-16T18:56:37.984Z,1002.56
2019-02-16T18:57:38.129Z,1002.56
2019-02-16T18:58:38.284Z,1002.54
2019-02-16T18:59:39.074Z,1002.58
2019-02-16T20:00:33.780Z,1002.78
2019-02-16T20:01:36.997Z,1002.84
2019-02-16T20:02:35.613Z,1002.78
2019-02-16T20:03:36.993Z,1002.78
2019-02-16T20:04:40.296Z,1002.71
2019-02-16T20:08:22.416Z,1002.78
2019-02-16T20:10:18.616Z,1002.76
2019-02-16T20:11:20.559Z,1002.72
2019-02-16T20:12:18.414Z,1002.64
2019-02-16T20:13:18.433Z,1002.64
2019-02-16T20:14:18.573Z,1002.68
2019-02-16T20:15:18.999Z,1002.68
2019-02-16T20:16:19.290Z,1002.66
2019-02-16T20:17:42.470Z,1002.70
2019-02-16T20:18:25.119Z,1002.69
2019-02-16T20:19:22.973Z,1002.71
2019-02-16T20:20:20.751Z,1002.70
2019-02-16T20:21:20.936Z,1002.74
2019-02-16T20:22:21.257Z,1002.74
2019-02-16T20:23:21.351Z,1002.76
2019-02-16T20:24:21.580Z,1002.70
2019-02-16T20:25:21.836Z,1002.68
2019-02-16T20:26:21.976Z,1002.67
2019-02-16T20:27:22.049Z,1002.70
2019-02-16T20:28:22.335Z,1002.69
2019-02-16T20:29:22.318Z,1002.64
2019-02-16T20:30:22.535Z,1002.71
2019-02-16T20:31:22.721Z,1002.71
2019-02-16T20:32:22.905Z,1002.71
2019-02-16T20:33:23.077Z,1002.74
2019-02-16T20:34:23.286Z,1002.77
2019-02-16T20:35:23.421Z,1002.71
2019-02-16T20:36:23.599Z,1002.77
2019-02-16T20:37:24.589Z,1002.78
2019-02-16T20:38:24.046Z,1002.79
2019-02-16T20:39:24.173Z,1002.77
2019-02-16T20:40:24.423Z,1002.78
2019-02-16T20:41:24.633Z,1002.78
2019-02-16T20:42:24.840Z,1002.77
2019-02-16T20:43:25.119Z,1002.81
2019-02-16T20:44:25.188Z,1002.80
2019-02-16T20:45:25.320Z,1002.74
2019-02-16T20:46:25.517Z,1002.73
2019-02-16T20:47:25.734Z,1002.80
2019-02-16T20:48:25.866Z,1002.76
2019-02-16T20:49:26.007Z,1002.75
2019-02-16T20:50:26.197Z,1002.77
2019-02-16T20:51:26.420Z,1002.79
2019-02-16T20:52:26.662Z,1002.74
2019-02-16T20:53:26.881Z,1002.77
2019-02-16T20:54:27.012Z,1002.73
2019-02-16T20:55:27.203Z,1002.79
2019-02-16T20:56:27.389Z,1002.81
2019-02-16T20:57:27.627Z,1002.78
2019-02-16T20:58:27.796Z,1002.79
2019-02-16T20:59:27.867Z,1002.76
2019-02-16T21:25:38.862Z,1002.78
2019-02-16T21:26:37.140Z,1002.83
2019-02-16T21:28:10.450Z,1002.84
2019-02-16T21:32:34.919Z,1002.76
2019-02-16T21:35:33.784Z,1002.76
2019-02-16T21:36:36.905Z,1002.80
2019-02-16T21:37:35.129Z,1002.74
2019-02-16T21:38:51.370Z,1002.80
2019-02-16T21:40:35.466Z,1002.76
2019-02-16T21:40:54.890Z,1002.85
2019-02-16T21:48:16.912Z,1002.75
